Time;durP1;ratioP1;P1;durP2;ratioP2;P2;SDS_P1;SDS_P2;PMS_P1;PMS_P2;Temp;Humidity;BMP_temperature;BMP_pressure;BME280_temperature;BME280_humidity;BME280_pressure;Samples;Min_cycle;Max_cycle;Signal;HPM_P1;HPM_P2
2023/12/24 00:02:16;;;;;;;17.45;8.40;;;;;;;;;;4939585;28;20077;-79
2023/12/24 00:04:42;;;;;;;;;;;;;;;;;;4924887;28;20046;-78
2023/12/24 00:07:11;;;;;;;18.45;9.07;;;;;;;;;;4945850;28;19914;-79
2023/12/24 00:09:38;;;;;;;18.52;9.27;;;;;;;;;;4940507;28;20099;-79
2023/12/24 00:12:07;;;;;;;18.88;8.80;;;;;;;;;;4943305;28;20105;-79
2023/12/24 00:14:37;;;;;;;18.05;8.27;;;;;;;;;;4927391;28;20039;-79
2023/12/24 00:17:05;;;;;;;18.30;7.93;;;;;;;;;;4930165;29;20631;-78
2023/12/24 00:19:33;;;;;;;14.77;7.88;;;;;;;;;;4939759;28;20469;-79
2023/12/24 00:22:02;;;;;;;20.45;8.95;;;;;;;;;;4945925;28;20027;-79
2023/12/24 00:24:28;;;;;;;18.48;7.95;;;;;;;;;;4936482;28;20027;-79
2023/12/24 00:26:56;;;;;;;16.60;7.78;;;;;;;;;;4924322;29;20568;-78
2023/12/24 00:29:34;;;;;;;17.08;7.78;;;;;;;;;;4927606;28;20046;-78
2023/12/24 00:32:00;;;;;;;16.65;7.32;;;;;;;;;;4910948;29;20052;-79
2023/12/24 00:34:28;;;;;;;16.02;7.57;;;;;;;;;;4902615;29;20033;-79
2023/12/24 00:36:54;;;;;;;12.77;6.45;;;;;;;;;;4905731;29;20028;-79
2023/12/24 00:39:22;;;;;;;17.05;6.53;;;;;;;;;;4902697;29;20059;-78
2023/12/24 00:41:49;;;;;;;16.25;6.95;;;;;;;;;;4906050;29;20036;-78
2023/12/24 00:44:17;;;;;;;15.85;6.65;;;;;;;;;;4904709;29;20036;-79
2023/12/24 00:46:44;;;;;;;15.02;7.75;;;;;;;;;;4894672;29;20039;-79
2023/12/24 00:49:13;;;;;;;15.68;7.00;;;;;;;;;;4901000;29;20506;-80
2023/12/24 00:51:44;;;;;;;15.43;8.18;;;;;;;;;;4902411;29;20036;-80
2023/12/24 00:54:12;;;;;;;16.20;8.55;;;;;;;;;;4897710;29;20074;-79
2023/12/24 00:56:40;;;;;;;17.17;8.30;;;;;;;;;;4899661;29;20396;-79
2023/12/24 00:59:08;;;;;;;16.30;7.82;;;;;;;;;;4898379;29;20568;-80
2023/12/24 01:01:36;;;;;;;15.25;7.32;;;;;;;;;;4900174;29;20498;-80
2023/12/24 01:04:03;;;;;;;15.48;7.18;;;;;;;;;;4901066;29;20039;-80
2023/12/24 01:06:30;;;;;;;15.27;7.43;;;;;;;;;;4892476;29;20112;-79
2023/12/24 01:08:58;;;;;;;17.60;7.35;;;;;;;;;;4889775;29;20658;-77
2023/12/24 01:11:26;;;;;;;13.75;6.45;;;;;;;;;;4884002;29;20033;-78
2023/12/24 01:13:54;;;;;;;14.05;5.80;;;;;;;;;;4884663;29;20124;-77
2023/12/24 01:16:21;;;;;;;13.85;5.72;;;;;;;;;;4888212;29;20479;-78
2023/12/24 01:18:48;;;;;;;14.80;6.60;;;;;;;;;;4888149;29;20127;-78
2023/12/24 01:21:14;;;;;;;12.45;5.60;;;;;;;;;;4886956;29;20131;-77
2023/12/24 01:23:42;;;;;;;13.40;5.78;;;;;;;;;;4883844;29;20044;-77
2023/12/24 01:26:08;;;;;;;11.35;4.63;;;;;;;;;;4888875;29;20557;-78
2023/12/24 01:28:34;;;;;;;12.75;5.55;;;;;;;;;;4883728;29;20040;-78
2023/12/24 01:31:00;;;;;;;15.38;5.90;;;;;;;;;;4899468;28;20031;-77
2023/12/24 01:33:28;;;;;;;12.65;5.50;;;;;;;;;;4924801;28;20073;-77
2023/12/24 01:35:55;;;;;;;12.43;4.75;;;;;;;;;;4927367;28;20536;-77
2023/12/24 01:38:23;;;;;;;13.02;4.82;;;;;;;;;;4912137;29;20569;-78
2023/12/24 01:40:50;;;;;;;14.63;5.40;;;;;;;;;;4909118;29;20034;-78
2023/12/24 01:43:18;;;;;;;11.90;5.45;;;;;;;;;;4911619;29;20020;-78
2023/12/24 01:45:44;;;;;;;13.77;6.28;;;;;;;;;;4919124;28;20031;-78
2023/12/24 01:48:12;;;;;;;13.30;5.95;;;;;;;;;;4923988;28;20039;-78
2023/12/24 01:50:39;;;;;;;11.18;4.80;;;;;;;;;;4923582;28;20035;-78
2023/12/24 01:53:06;;;;;;;12.18;5.32;;;;;;;;;;4928042;28;20430;-79
2023/12/24 01:55:33;;;;;;;;;;;;;;;;;;4894071;28;20035;-78
2023/12/24 01:57:59;;;;;;;10.27;5.03;;;;;;;;;;4913344;29;20009;-78
2023/12/24 02:00:26;;;;;;;13.05;5.00;;;;;;;;;;4923594;28;20475;-78
2023/12/24 02:02:54;;;;;;;11.32;4.50;;;;;;;;;;4925654;28;20081;-79
2023/12/24 02:05:20;;;;;;;11.05;4.93;;;;;;;;;;4925707;28;20445;-81
2023/12/24 02:07:48;;;;;;;10.70;4.30;;;;;;;;;;4909333;28;20038;-78
2023/12/24 02:10:16;;;;;;;13.48;5.18;;;;;;;;;;4912716;29;20038;-79
2023/12/24 02:12:44;;;;;;;13.13;6.05;;;;;;;;;;4922471;28;20028;-78
2023/12/24 02:15:10;;;;;;;12.88;5.65;;;;;;;;;;4908488;29;20121;-78
2023/12/24 02:17:38;;;;;;;12.93;5.65;;;;;;;;;;4925009;28;20366;-78
2023/12/24 02:20:05;;;;;;;12.15;5.43;;;;;;;;;;4922632;28;20103;-80
2023/12/24 02:22:32;;;;;;;12.00;5.80;;;;;;;;;;4925662;28;20043;-78
2023/12/24 02:24:58;;;;;;;11.90;4.93;;;;;;;;;;4925704;28;20041;-80
2023/12/24 02:27:31;;;;;;;12.40;4.30;;;;;;;;;;4909125;28;20035;-78
2023/12/24 02:30:02;;;;;;;8.77;3.70;;;;;;;;;;4925384;28;20063;-77
2023/12/24 02:32:29;;;;;;;10.38;3.42;;;;;;;;;;4922344;28;20043;-78
2023/12/24 02:34:59;;;;;;;8.55;3.13;;;;;;;;;;4926201;28;20035;-79
2023/12/24 02:37:26;;;;;;;9.00;3.33;;;;;;;;;;4908694;28;20034;-78
2023/12/24 02:39:52;;;;;;;9.02;3.20;;;;;;;;;;4915492;29;20102;-78
2023/12/24 02:42:19;;;;;;;7.75;2.70;;;;;;;;;;4930678;28;20034;-78
2023/12/24 02:44:45;;;;;;;8.45;3.15;;;;;;;;;;4906646;28;20059;-79
2023/12/24 02:47:11;;;;;;;8.00;2.75;;;;;;;;;;4914478;29;20544;-78
2023/12/24 02:49:37;;;;;;;7.43;2.40;;;;;;;;;;4926666;28;20049;-78
2023/12/24 02:52:05;;;;;;;8.30;3.03;;;;;;;;;;4926702;28;20114;-77
2023/12/24 02:54:33;;;;;;;8.75;3.40;;;;;;;;;;4924858;28;20146;-79
2023/12/24 02:57:01;;;;;;;8.85;3.88;;;;;;;;;;4931116;28;20114;-78
2023/12/24 02:59:29;;;;;;;9.32;3.85;;;;;;;;;;4925114;28;20092;-79
2023/12/24 03:01:56;;;;;;;9.07;3.88;;;;;;;;;;4917035;29;20638;-79
2023/12/24 03:04:25;;;;;;;8.02;3.40;;;;;;;;;;4925657;28;20471;-78
2023/12/24 03:06:52;;;;;;;8.95;3.50;;;;;;;;;;4915578;29;20031;-79
2023/12/24 03:09:19;;;;;;;9.13;3.63;;;;;;;;;;4915765;29;20031;-79
2023/12/24 03:11:46;;;;;;;9.13;3.08;;;;;;;;;;4931591;28;20086;-80
2023/12/24 03:14:13;;;;;;;9.18;2.90;;;;;;;;;;4920477;29;20039;-79
2023/12/24 03:16:41;;;;;;;6.22;2.38;;;;;;;;;;4913512;28;20051;-79
2023/12/24 03:19:08;;;;;;;7.05;2.67;;;;;;;;;;4916153;29;20142;-79
2023/12/24 03:21:35;;;;;;;7.78;3.30;;;;;;;;;;4909160;28;20191;-80
2023/12/24 03:24:02;;;;;;;9.15;4.10;;;;;;;;;;4929398;28;20093;-79
2023/12/24 03:26:29;;;;;;;10.40;5.07;;;;;;;;;;4925096;28;20027;-80
2023/12/24 03:28:57;;;;;;;10.68;5.97;;;;;;;;;;4911280;29;20046;-79
2023/12/24 03:31:26;;;;;;;10.07;4.80;;;;;;;;;;4928634;28;20058;-80
2023/12/24 03:33:52;;;;;;;9.30;4.22;;;;;;;;;;4928148;28;20043;-78
2023/12/24 03:36:18;;;;;;;8.23;3.38;;;;;;;;;;4915313;29;20119;-78
2023/12/24 03:38:45;;;;;;;8.50;3.50;;;;;;;;;;4925363;28;20127;-78
2023/12/24 03:41:11;;;;;;;7.38;2.47;;;;;;;;;;4910089;29;20035;-78
2023/12/24 03:43:38;;;;;;;7.15;2.45;;;;;;;;;;4909750;28;20073;-78
2023/12/24 03:46:07;;;;;;;8.55;2.22;;;;;;;;;;4932307;28;20054;-78
2023/12/24 03:48:37;;;;;;;7.50;2.13;;;;;;;;;;4924257;28;20725;-78
2023/12/24 03:51:05;;;;;;;6.28;2.20;;;;;;;;;;4929646;28;20030;-78
2023/12/24 03:53:31;;;;;;;6.60;2.03;;;;;;;;;;4924958;28;20594;-78
2023/12/24 03:55:58;;;;;;;7.93;2.30;;;;;;;;;;4930198;28;20727;-78
2023/12/24 03:58:26;;;;;;;6.82;2.00;;;;;;;;;;4910475;28;20042;-78
2023/12/24 04:00:53;;;;;;;6.25;2.17;;;;;;;;;;4931560;28;20029;-78
2023/12/24 04:03:19;;;;;;;8.45;2.22;;;;;;;;;;4928710;28;20584;-78
2023/12/24 04:05:46;;;;;;;7.78;2.55;;;;;;;;;;4926309;28;20114;-79
2023/12/24 04:08:14;;;;;;;8.45;2.53;;;;;;;;;;4928581;28;20031;-78
2023/12/24 04:10:41;;;;;;;6.30;2.05;;;;;;;;;;4926314;28;20027;-78
2023/12/24 04:13:08;;;;;;;6.72;2.00;;;;;;;;;;4914181;29;20035;-80
2023/12/24 04:15:35;;;;;;;7.15;1.95;;;;;;;;;;4924019;28;20031;-77
2023/12/24 04:18:03;;;;;;;6.97;1.80;;;;;;;;;;4914538;29;20065;-78
2023/12/24 04:20:29;;;;;;;6.57;1.85;;;;;;;;;;4912775;28;20031;-78
2023/12/24 04:22:56;;;;;;;8.23;2.25;;;;;;;;;;4912928;29;20055;-78
2023/12/24 04:25:24;;;;;;;6.45;1.63;;;;;;;;;;4923704;28;20838;-78
2023/12/24 04:27:51;;;;;;;5.13;1.70;;;;;;;;;;4928763;28;20034;-78
2023/12/24 04:30:17;;;;;;;7.07;1.67;;;;;;;;;;4926049;28;20034;-79
2023/12/24 04:32:46;;;;;;;5.85;1.67;;;;;;;;;;4904995;28;20036;-78
2023/12/24 04:35:13;;;;;;;7.10;1.95;;;;;;;;;;4926249;28;20078;-79
2023/12/24 04:37:39;;;;;;;7.07;2.00;;;;;;;;;;4925230;28;20525;-78
2023/12/24 04:40:07;;;;;;;8.13;2.30;;;;;;;;;;4914866;29;20031;-78
2023/12/24 04:42:34;;;;;;;9.10;2.97;;;;;;;;;;4924145;28;20027;-78
2023/12/24 04:45:02;;;;;;;10.30;4.22;;;;;;;;;;4924715;28;20039;-80
2023/12/24 04:47:29;;;;;;;10.80;4.03;;;;;;;;;;4924895;28;21100;-78
2023/12/24 04:49:55;;;;;;;10.15;4.80;;;;;;;;;;4910451;29;20027;-79
2023/12/24 04:52:22;;;;;;;13.43;4.20;;;;;;;;;;4926273;28;20042;-79
2023/12/24 04:54:50;;;;;;;9.30;3.80;;;;;;;;;;4912514;29;20098;-79
2023/12/24 04:57:17;;;;;;;8.85;3.20;;;;;;;;;;4924589;28;20047;-79
2023/12/24 04:59:43;;;;;;;8.18;3.15;;;;;;;;;;4923015;28;20143;-79
2023/12/24 05:02:09;;;;;;;;;;;;;;;;;;4930113;28;20518;-79
2023/12/24 05:04:36;;;;;;;7.72;3.05;;;;;;;;;;4925707;28;20365;-81
2023/12/24 05:07:04;;;;;;;8.82;3.63;;;;;;;;;;4926406;28;20039;-80
2023/12/24 05:09:32;;;;;;;7.90;2.97;;;;;;;;;;4925536;28;20031;-79
2023/12/24 05:12:00;;;;;;;10.18;3.25;;;;;;;;;;4908803;29;20031;-79
2023/12/24 05:14:29;;;;;;;7.60;2.53;;;;;;;;;;4924061;28;20185;-78
2023/12/24 05:16:57;;;;;;;8.40;2.90;;;;;;;;;;4928046;28;20668;-78
2023/12/24 05:19:26;;;;;;;8.60;3.10;;;;;;;;;;4925422;28;20752;-78
2023/12/24 05:21:53;;;;;;;7.70;2.55;;;;;;;;;;4926827;28;20019;-78
2023/12/24 05:24:19;;;;;;;7.53;2.53;;;;;;;;;;4915762;29;20050;-78
2023/12/24 05:26:47;;;;;;;10.15;2.65;;;;;;;;;;4925461;28;20084;-78
2023/12/24 05:29:13;;;;;;;7.82;2.35;;;;;;;;;;4929513;28;20030;-81
2023/12/24 05:31:40;;;;;;;6.55;2.30;;;;;;;;;;4921613;28;20063;-78
2023/12/24 05:34:06;;;;;;;9.13;2.88;;;;;;;;;;4927292;28;20114;-78
2023/12/24 05:36:34;;;;;;;7.97;2.70;;;;;;;;;;4907801;28;20055;-79
2023/12/24 05:39:03;;;;;;;9.75;2.60;;;;;;;;;;4927333;28;20035;-78
2023/12/24 05:41:29;;;;;;;8.98;3.63;;;;;;;;;;4923524;28;20024;-79
2023/12/24 05:43:55;;;;;;;11.60;5.65;;;;;;;;;;4913634;29;20070;-78
2023/12/24 05:46:23;;;;;;;11.00;5.63;;;;;;;;;;4922218;28;20031;-78
2023/12/24 05:48:50;;;;;;;8.88;3.85;;;;;;;;;;4928690;28;20027;-78
2023/12/24 05:51:18;;;;;;;9.52;3.72;;;;;;;;;;4926154;28;20038;-78
2023/12/24 05:53:46;;;;;;;9.48;3.40;;;;;;;;;;4904648;28;20035;-78
2023/12/24 05:56:12;;;;;;;9.27;3.70;;;;;;;;;;4907135;29;20113;-78
2023/12/24 05:58:40;;;;;;;8.40;3.20;;;;;;;;;;4924598;28;20035;-78
2023/12/24 06:01:08;;;;;;;6.97;2.35;;;;;;;;;;4926541;28;20046;-78
2023/12/24 06:03:34;;;;;;;7.65;2.45;;;;;;;;;;4923150;28;20047;-78
2023/12/24 06:06:02;;;;;;;8.18;3.20;;;;;;;;;;4923870;28;20030;-78
2023/12/24 06:08:30;;;;;;;9.98;3.97;;;;;;;;;;4907640;28;20057;-78
2023/12/24 06:10:58;;;;;;;9.07;3.38;;;;;;;;;;4912691;29;20030;-77
2023/12/24 06:13:27;;;;;;;9.90;3.35;;;;;;;;;;4921937;28;20098;-78
2023/12/24 06:15:54;;;;;;;10.13;3.95;;;;;;;;;;4924654;28;20122;-78
2023/12/24 06:18:22;;;;;;;9.98;3.13;;;;;;;;;;4909338;29;20498;-80
2023/12/24 06:20:50;;;;;;;8.38;3.00;;;;;;;;;;4924760;28;20035;-78
2023/12/24 06:23:17;;;;;;;10.43;3.53;;;;;;;;;;4907006;29;20129;-77
2023/12/24 06:25:46;;;;;;;11.05;3.60;;;;;;;;;;4925017;28;20038;-78
2023/12/24 06:28:12;;;;;;;10.40;3.20;;;;;;;;;;4924744;28;20089;-78
2023/12/24 06:30:39;;;;;;;9.50;3.80;;;;;;;;;;4924066;28;20078;-78
2023/12/24 06:33:07;;;;;;;13.02;4.00;;;;;;;;;;4911460;29;20035;-78
2023/12/24 06:35:34;;;;;;;11.50;4.20;;;;;;;;;;4916891;28;20024;-77
2023/12/24 06:38:01;;;;;;;10.27;3.67;;;;;;;;;;4921570;28;20063;-78
2023/12/24 06:40:27;;;;;;;10.27;3.97;;;;;;;;;;4920220;28;20026;-77
2023/12/24 06:42:54;;;;;;;11.57;4.03;;;;;;;;;;4906595;29;20038;-80
2023/12/24 06:45:22;;;;;;;10.20;4.00;;;;;;;;;;4910919;29;20037;-78
2023/12/24 06:47:48;;;;;;;10.52;3.40;;;;;;;;;;4927259;28;20022;-78
2023/12/24 06:50:16;;;;;;;11.38;3.70;;;;;;;;;;4922181;28;20176;-78
2023/12/24 06:52:43;;;;;;;9.93;2.85;;;;;;;;;;4906049;28;20050;-77
2023/12/24 06:55:09;;;;;;;8.93;3.33;;;;;;;;;;4923642;28;20034;-78
2023/12/24 06:57:35;;;;;;;9.98;3.35;;;;;;;;;;4925681;28;20035;-80
2023/12/24 07:00:05;;;;;;;9.65;2.90;;;;;;;;;;4911767;29;20036;-81
2023/12/24 07:02:31;;;;;;;11.10;2.92;;;;;;;;;;4908657;28;20074;-80
2023/12/24 07:04:58;;;;;;;;;;;;;;;;;;4908194;29;20083;-80
2023/12/24 07:07:27;;;;;;;10.07;3.35;;;;;;;;;;4919335;28;20526;-78
2023/12/24 07:09:55;;;;;;;9.90;3.50;;;;;;;;;;4925101;28;20134;-78
2023/12/24 07:12:24;;;;;;;11.15;3.33;;;;;;;;;;4922309;28;20817;-78
2023/12/24 07:14:50;;;;;;;11.55;4.13;;;;;;;;;;4906901;29;20027;-79
2023/12/24 07:17:16;;;;;;;11.95;4.57;;;;;;;;;;4909345;29;20039;-79
2023/12/24 07:19:45;;;;;;;11.68;4.90;;;;;;;;;;4917313;28;20071;-79
2023/12/24 07:22:11;;;;;;;11.82;4.57;;;;;;;;;;4928299;28;20039;-79
2023/12/24 07:24:39;;;;;;;11.02;4.70;;;;;;;;;;4926918;28;20117;-79
2023/12/24 07:27:06;;;;;;;10.63;4.35;;;;;;;;;;4918597;29;20891;-78
2023/12/24 07:29:32;;;;;;;10.73;4.03;;;;;;;;;;4927863;28;20046;-78
2023/12/24 07:31:59;;;;;;;12.23;4.13;;;;;;;;;;4927849;28;20569;-80
2023/12/24 07:34:27;;;;;;;11.50;4.00;;;;;;;;;;4924302;28;20580;-79
2023/12/24 07:36:55;;;;;;;10.85;3.75;;;;;;;;;;4929425;28;20027;-79
2023/12/24 07:39:22;;;;;;;13.07;4.05;;;;;;;;;;4915035;29;20485;-78
2023/12/24 07:41:48;;;;;;;9.85;3.63;;;;;;;;;;4927413;28;20012;-78
2023/12/24 07:44:17;;;;;;;10.30;3.92;;;;;;;;;;4926692;28;20102;-80
2023/12/24 07:46:45;;;;;;;11.48;4.20;;;;;;;;;;4922768;28;20110;-78
2023/12/24 07:49:13;;;;;;;11.20;4.50;;;;;;;;;;4932292;28;20027;-78
2023/12/24 07:51:41;;;;;;;10.85;4.38;;;;;;;;;;4920213;28;20069;-78
2023/12/24 07:54:07;;;;;;;13.05;4.80;;;;;;;;;;4911183;29;20028;-78
2023/12/24 07:56:33;;;;;;;12.02;4.07;;;;;;;;;;4910432;28;20035;-79
2023/12/24 07:59:01;;;;;;;12.18;4.22;;;;;;;;;;4928844;28;20039;-78
2023/12/24 08:01:28;;;;;;;10.32;3.80;;;;;;;;;;4909404;28;20118;-79
2023/12/24 08:03:55;;;;;;;12.68;4.63;;;;;;;;;;4924193;28;20104;-78
2023/12/24 08:06:22;;;;;;;11.75;4.40;;;;;;;;;;4926621;28;20138;-78
2023/12/24 08:08:51;;;;;;;11.63;4.18;;;;;;;;;;4927416;28;20038;-78
2023/12/24 08:11:18;;;;;;;9.85;3.63;;;;;;;;;;4928607;28;20525;-78
2023/12/24 08:13:44;;;;;;;8.70;3.30;;;;;;;;;;4911025;28;20042;-78
2023/12/24 08:16:11;;;;;;;9.27;3.42;;;;;;;;;;4909195;29;20780;-78
2023/12/24 08:18:37;;;;;;;8.57;3.10;;;;;;;;;;4923846;28;20863;-78
2023/12/24 08:21:10;;;;;;;9.70;3.60;;;;;;;;;;4912819;29;20023;-79
2023/12/24 08:23:37;;;;;;;11.10;4.60;;;;;;;;;;4912571;28;20126;-78
2023/12/24 08:26:05;;;;;;;10.77;4.18;;;;;;;;;;4927571;28;20566;-78
2023/12/24 08:28:31;;;;;;;11.35;3.95;;;;;;;;;;4921417;28;20640;-78
2023/12/24 08:30:59;;;;;;;;;;;;;;;;;;4922391;28;20040;-78
2023/12/24 08:33:25;;;;;;;9.38;4.35;;;;;;;;;;4904944;29;20569;-77
2023/12/24 08:35:52;;;;;;;;;;;;;;;;;;4909719;29;20761;-77
2023/12/24 08:38:19;;;;;;;;;;;;;;;;;;4909655;29;19918;-78
2023/12/24 08:40:47;;;;;;;10.32;4.65;;;;;;;;;;4905809;29;19915;-78
2023/12/24 08:43:14;;;;;;;11.95;4.70;;;;;;;;;;4906098;29;20118;-77
2023/12/24 08:45:41;;;;;;;13.43;4.53;;;;;;;;;;4905249;29;20035;-77
2023/12/24 08:48:08;;;;;;;;;;;;;;;;;;4910826;29;20040;-79
2023/12/24 08:50:36;;;;;;;10.45;4.40;;;;;;;;;;4902744;29;19932;-78
2023/12/24 08:53:02;;;;;;;11.57;3.58;;;;;;;;;;4904526;29;20128;-79
2023/12/24 08:55:28;;;;;;;9.57;4.25;;;;;;;;;;4900451;29;20797;-79
2023/12/24 08:57:55;;;;;;;;;;;;;;;;;;4904604;29;20024;-79
2023/12/24 09:00:23;;;;;;;9.77;3.33;;;;;;;;;;4909152;29;19914;-79
2023/12/24 09:02:49;;;;;;;10.35;4.03;;;;;;;;;;4910247;29;20024;-78
2023/12/24 09:05:18;;;;;;;;;;;;;;;;;;4912734;29;20028;-78
2023/12/24 09:07:44;;;;;;;10.43;3.30;;;;;;;;;;4906360;29;19914;-79
2023/12/24 09:10:12;;;;;;;8.15;3.33;;;;;;;;;;4911821;29;20043;-78
2023/12/24 09:12:40;;;;;;;10.30;3.40;;;;;;;;;;4904664;29;20131;-79
2023/12/24 09:15:08;;;;;;;9.32;3.03;;;;;;;;;;4908209;29;20042;-79
2023/12/24 09:17:35;;;;;;;7.80;2.60;;;;;;;;;;4906483;29;20047;-80
2023/12/24 09:20:04;;;;;;;8.75;2.70;;;;;;;;;;4906291;29;20024;-80
2023/12/24 09:22:30;;;;;;;8.75;2.83;;;;;;;;;;4908382;29;20043;-79
2023/12/24 09:24:58;;;;;;;15.80;7.53;;;;;;;;;;4905302;29;20125;-78
2023/12/24 09:27:24;;;;;;;9.05;3.75;;;;;;;;;;4901416;29;20035;-78
2023/12/24 09:29:52;;;;;;;10.88;4.15;;;;;;;;;;4908778;29;20035;-81
2023/12/24 09:32:19;;;;;;;9.35;3.53;;;;;;;;;;4924122;28;20568;-79
2023/12/24 09:34:47;;;;;;;9.35;3.20;;;;;;;;;;4923914;28;20035;-80
2023/12/24 09:37:14;;;;;;;10.32;4.18;;;;;;;;;;4927283;28;20046;-81
2023/12/24 09:39:42;;;;;;;8.52;3.65;;;;;;;;;;4919447;28;20059;-80
2023/12/24 09:42:09;;;;;;;8.85;3.40;;;;;;;;;;4921015;28;20159;-80
2023/12/24 09:44:36;;;;;;;9.60;3.05;;;;;;;;;;4924104;28;20035;-80
2023/12/24 09:47:02;;;;;;;8.95;2.72;;;;;;;;;;4926275;28;20026;-80
2023/12/24 09:49:29;;;;;;;10.43;2.88;;;;;;;;;;4915389;28;20468;-79
2023/12/24 09:51:55;;;;;;;6.65;2.10;;;;;;;;;;4926821;28;20027;-79
2023/12/24 09:54:23;;;;;;;9.55;2.78;;;;;;;;;;4923184;28;20046;-78
2023/12/24 09:56:50;;;;;;;11.45;6.10;;;;;;;;;;4926944;28;20089;-78
2023/12/24 09:59:18;;;;;;;8.77;3.55;;;;;;;;;;4912264;29;20134;-79
2023/12/24 10:01:46;;;;;;;9.38;3.55;;;;;;;;;;4924720;28;20054;-79
2023/12/24 10:04:13;;;;;;;11.02;4.47;;;;;;;;;;4928439;28;20018;-80
2023/12/24 10:06:58;;;;;;;9.60;3.60;;;;;;;;;;4906270;28;20047;-78
2023/12/24 10:09:45;;;;;;;8.60;2.88;;;;;;;;;;4922264;28;20027;-77
2023/12/24 10:12:11;;;;;;;8.48;2.58;;;;;;;;;;4910936;29;20102;-81
2023/12/24 10:14:42;;;;;;;10.25;3.35;;;;;;;;;;4909733;28;20178;-78
2023/12/24 10:17:09;;;;;;;11.07;4.50;;;;;;;;;;4925285;28;20031;-79
2023/12/24 10:19:39;;;;;;;10.18;3.50;;;;;;;;;;4903769;28;20031;-77
2023/12/24 10:22:08;;;;;;;9.32;2.50;;;;;;;;;;4925076;28;20082;-79
2023/12/24 10:24:40;;;;;;;17.33;9.63;;;;;;;;;;4922957;28;20442;-77
2023/12/24 10:27:10;;;;;;;22.70;17.00;;;;;;;;;;4926346;28;20472;-77
2023/12/24 10:29:40;;;;;;;33.60;27.05;;;;;;;;;;4921534;28;20039;-77
2023/12/24 10:32:10;;;;;;;18.50;13.02;;;;;;;;;;4911824;29;20056;-77
2023/12/24 10:34:39;;;;;;;15.00;9.18;;;;;;;;;;4906930;28;20142;-78
2023/12/24 10:37:26;;;;;;;11.38;4.40;;;;;;;;;;4921778;28;20587;-76
2023/12/24 10:39:52;;;;;;;8.80;3.50;;;;;;;;;;4926071;28;20027;-79
2023/12/24 10:42:39;;;;;;;9.32;2.55;;;;;;;;;;4910874;29;20024;-79
2023/12/24 10:45:09;;;;;;;7.47;2.67;;;;;;;;;;4910071;29;20506;-78
2023/12/24 10:47:38;;;;;;;6.85;2.00;;;;;;;;;;4922871;28;20098;-78
2023/12/24 10:50:07;;;;;;;5.45;1.90;;;;;;;;;;4923820;28;20035;-79
2023/12/24 10:52:35;;;;;;;6.80;2.13;;;;;;;;;;4921834;28;20034;-79
2023/12/24 10:55:05;;;;;;;8.73;2.88;;;;;;;;;;4927946;28;20027;-80
2023/12/24 10:57:50;;;;;;;6.32;2.22;;;;;;;;;;4926951;28;20038;-80
2023/12/24 11:00:17;;;;;;;15.05;10.13;;;;;;;;;;4930699;28;20859;-80
2023/12/24 11:02:46;;;;;;;10.13;4.88;;;;;;;;;;4925078;28;21376;-80
2023/12/24 11:05:12;;;;;;;9.18;3.65;;;;;;;;;;4912753;29;20119;-81
2023/12/24 11:07:41;;;;;;;9.20;3.45;;;;;;;;;;4925346;28;20039;-81
2023/12/24 11:10:07;;;;;;;17.42;13.50;;;;;;;;;;4930198;28;20106;-82
2023/12/24 11:12:34;;;;;;;16.48;11.30;;;;;;;;;;4928315;28;20452;-83
2023/12/24 11:15:01;;;;;;;12.18;7.05;;;;;;;;;;4916491;29;20038;-81
2023/12/24 11:17:41;;;;;;;9.98;5.10;;;;;;;;;;4923651;28;20043;-80
2023/12/24 11:20:25;;;;;;;11.00;4.60;;;;;;;;;;4924797;28;20038;-80
2023/12/24 11:23:09;;;;;;;9.93;4.80;;;;;;;;;;4927385;28;20065;-80
2023/12/24 11:25:44;;;;;;;14.68;8.45;;;;;;;;;;4924171;28;20110;-79
2023/12/24 11:28:25;;;;;;;14.45;9.73;;;;;;;;;;4927713;28;20098;-79
2023/12/24 11:30:54;;;;;;;12.75;7.40;;;;;;;;;;4928312;28;20051;-81
2023/12/24 11:33:30;;;;;;;10.65;3.75;;;;;;;;;;4928780;28;20050;-80
2023/12/24 11:35:56;;;;;;;8.43;3.08;;;;;;;;;;4929568;28;20160;-79
2023/12/24 11:38:35;;;;;;;9.85;4.63;;;;;;;;;;4908983;28;20119;-79
2023/12/24 11:41:10;;;;;;;9.07;3.60;;;;;;;;;;4907645;29;20027;-79
2023/12/24 11:43:39;;;;;;;8.38;3.40;;;;;;;;;;4912369;28;20827;-79
2023/12/24 11:46:27;;;;;;;6.60;2.15;;;;;;;;;;4926753;28;20134;-79
2023/12/24 11:48:55;;;;;;;7.72;2.70;;;;;;;;;;4915914;29;20922;-81
2023/12/24 11:51:26;;;;;;;6.68;2.50;;;;;;;;;;4929801;28;20035;-80
2023/12/24 11:54:03;;;;;;;6.97;2.35;;;;;;;;;;4920916;28;20029;-81
2023/12/24 11:56:34;;;;;;;8.63;2.67;;;;;;;;;;4911941;28;20039;-80
2023/12/24 11:59:05;;;;;;;5.82;1.85;;;;;;;;;;4914069;29;20035;-81
2023/12/24 12:01:36;;;;;;;7.93;3.20;;;;;;;;;;4911141;28;20039;-80
2023/12/24 12:04:03;;;;;;;5.65;2.20;;;;;;;;;;4916247;29;20032;-80
2023/12/24 12:06:37;;;;;;;6.35;1.90;;;;;;;;;;4913156;28;20031;-79
2023/12/24 12:09:06;;;;;;;8.23;2.10;;;;;;;;;;4931351;28;20031;-78
2023/12/24 12:11:34;;;;;;;8.93;3.10;;;;;;;;;;4908543;28;20506;-79
2023/12/24 12:14:04;;;;;;;10.43;3.20;;;;;;;;;;4912783;29;20078;-81
2023/12/24 12:16:31;;;;;;;8.38;3.00;;;;;;;;;;4920283;28;20047;-79
2023/12/24 12:18:57;;;;;;;8.95;3.40;;;;;;;;;;4922270;29;20023;-80
2023/12/24 12:21:26;;;;;;;8.68;3.20;;;;;;;;;;4931320;28;20106;-79
2023/12/24 12:23:54;;;;;;;7.50;2.90;;;;;;;;;;4935855;28;20751;-79
2023/12/24 12:26:21;;;;;;;7.35;2.78;;;;;;;;;;4926573;29;20035;-79
2023/12/24 12:28:47;;;;;;;5.97;2.22;;;;;;;;;;4926349;28;20035;-78
2023/12/24 12:31:13;;;;;;;6.75;2.58;;;;;;;;;;4928700;28;20490;-79
2023/12/24 12:33:41;;;;;;;7.75;2.45;;;;;;;;;;4921741;28;20630;-79
2023/12/24 12:36:07;;;;;;;7.88;2.40;;;;;;;;;;4913702;29;20102;-80
2023/12/24 12:38:34;;;;;;;6.68;2.17;;;;;;;;;;4937825;28;20027;-79
2023/12/24 12:41:00;;;;;;;6.70;2.05;;;;;;;;;;4912461;29;20197;-82
2023/12/24 12:43:28;;;;;;;6.22;1.90;;;;;;;;;;4921127;28;20024;-83
2023/12/24 12:45:55;;;;;;;5.57;1.60;;;;;;;;;;4922046;29;20046;-82
2023/12/24 12:48:23;;;;;;;8.77;1.90;;;;;;;;;;4920043;29;20692;-80
2023/12/24 12:50:49;;;;;;;5.65;1.60;;;;;;;;;;4946227;28;20033;-81
2023/12/24 12:53:26;;;;;;;6.60;2.13;;;;;;;;;;4911414;29;20484;-82
2023/12/24 12:56:07;;;;;;;7.88;1.95;;;;;;;;;;4939920;28;20035;-81
2023/12/24 12:58:33;;;;;;;6.00;1.65;;;;;;;;;;4908413;28;20067;-80
2023/12/24 13:01:02;;;;;;;7.85;2.03;;;;;;;;;;4916214;29;20047;-81
2023/12/24 13:03:29;;;;;;;7.22;1.60;;;;;;;;;;4910070;28;20090;-81
2023/12/24 13:05:57;;;;;;;7.63;2.08;;;;;;;;;;4927445;28;20031;-81
2023/12/24 13:08:24;;;;;;;6.90;1.70;;;;;;;;;;4927593;28;20031;-81
2023/12/24 13:10:50;;;;;;;7.40;2.20;;;;;;;;;;4926288;28;20051;-81
2023/12/24 13:13:20;;;;;;;7.53;2.35;;;;;;;;;;4925560;28;20116;-81
2023/12/24 13:15:48;;;;;;;10.63;2.65;;;;;;;;;;4928344;28;20035;-80
2023/12/24 13:18:14;;;;;;;8.20;2.17;;;;;;;;;;4925832;28;20023;-80
2023/12/24 13:20:42;;;;;;;10.98;3.30;;;;;;;;;;4907422;28;20557;-80
2023/12/24 13:23:13;;;;;;;12.65;6.68;;;;;;;;;;4912001;29;20122;-79
2023/12/24 13:25:45;;;;;;;7.68;2.08;;;;;;;;;;4908849;28;20671;-81
2023/12/24 13:28:11;;;;;;;9.90;2.92;;;;;;;;;;4904276;29;20110;-81
2023/12/24 13:30:39;;;;;;;6.30;1.80;;;;;;;;;;4923395;28;20057;-81
2023/12/24 13:33:10;;;;;;;7.38;1.88;;;;;;;;;;4914506;29;20029;-80
2023/12/24 13:35:38;;;;;;;7.65;1.80;;;;;;;;;;4926577;28;20059;-80
2023/12/24 13:38:08;;;;;;;8.60;1.67;;;;;;;;;;4925595;28;20066;-80
2023/12/24 13:40:36;;;;;;;6.75;1.30;;;;;;;;;;4906712;28;20043;-80
2023/12/24 13:43:20;;;;;;;8.65;2.17;;;;;;;;;;4933282;28;20028;-80
2023/12/24 13:45:47;;;;;;;5.97;1.60;;;;;;;;;;4907018;28;20070;-79
2023/12/24 13:48:13;;;;;;;7.72;1.88;;;;;;;;;;4909262;29;20027;-81
2023/12/24 13:50:41;;;;;;;7.70;2.20;;;;;;;;;;4916269;28;20035;-80
2023/12/24 13:53:09;;;;;;;7.63;1.73;;;;;;;;;;4933594;28;20023;-80
2023/12/24 13:55:37;;;;;;;9.43;3.30;;;;;;;;;;4936715;28;20035;-80
2023/12/24 13:58:05;;;;;;;7.63;1.83;;;;;;;;;;4932856;28;20034;-79
2023/12/24 14:00:32;;;;;;;5.95;1.55;;;;;;;;;;4930007;28;20533;-80
2023/12/24 14:02:59;;;;;;;9.98;5.80;;;;;;;;;;4920837;29;20702;-81
2023/12/24 14:05:26;;;;;;;7.95;2.30;;;;;;;;;;4926610;28;20101;-80
2023/12/24 14:07:56;;;;;;;7.93;2.53;;;;;;;;;;4940751;28;20035;-81
2023/12/24 14:10:24;;;;;;;5.35;1.25;;;;;;;;;;4925936;28;20034;-81
2023/12/24 14:12:53;;;;;;;6.55;1.40;;;;;;;;;;4939403;28;20058;-82
2023/12/24 14:15:19;;;;;;;7.20;2.00;;;;;;;;;;4930066;29;20039;-81
2023/12/24 14:17:47;;;;;;;5.47;1.77;;;;;;;;;;4926727;28;20042;-81
2023/12/24 14:20:16;;;;;;;7.20;1.50;;;;;;;;;;4927388;29;20113;-81
2023/12/24 14:22:43;;;;;;;7.28;2.10;;;;;;;;;;4924900;28;20252;-80
2023/12/24 14:25:12;;;;;;;6.43;1.60;;;;;;;;;;4915207;29;20036;-80
2023/12/24 14:27:39;;;;;;;7.63;1.88;;;;;;;;;;4917188;28;20039;-81
2023/12/24 14:30:13;;;;;;;8.45;1.80;;;;;;;;;;4930575;28;20034;-81
2023/12/24 14:32:39;;;;;;;7.28;1.70;;;;;;;;;;4929083;28;20126;-81
2023/12/24 14:35:07;;;;;;;6.40;1.50;;;;;;;;;;4918599;29;20031;-81
2023/12/24 14:37:38;;;;;;;7.43;1.63;;;;;;;;;;4931490;28;20102;-80
2023/12/24 14:40:06;;;;;;;5.95;1.35;;;;;;;;;;4939234;28;20094;-81
2023/12/24 14:42:34;;;;;;;6.03;1.38;;;;;;;;;;4925830;28;20027;-80
2023/12/24 14:45:03;;;;;;;7.10;1.50;;;;;;;;;;4934713;28;20035;-78
2023/12/24 14:47:32;;;;;;;6.00;1.48;;;;;;;;;;4929215;28;20114;-80